sensor_id;sensor_type;location;lat;lon;timestamp;P1;durP1;ratioP1;P2;durP2;ratioP2
5507;SDS011;2776;51.046;6.772;2024-03-23T00:56:14;10.83;;;2.73;;
5507;SDS011;2776;51.046;6.772;2024-03-23T00:58:40;5.80;;;2.50;;
5507;SDS011;2776;51.046;6.772;2024-03-23T01:01:07;5.83;;;2.50;;
5507;SDS011;2776;51.046;6.772;2024-03-23T01:03:33;9.43;;;2.70;;
5507;SDS011;2776;51.046;6.772;2024-03-23T01:05:59;7.37;;;2.67;;
5507;SDS011;2776;51.046;6.772;2024-03-23T01:08:25;5.70;;;2.50;;
5507;SDS011;2776;51.046;6.772;2024-03-23T01:10:57;6.60;;;2.53;;
5507;SDS011;2776;51.046;6.772;2024-03-23T01:13:23;5.60;;;2.43;;
5507;SDS011;2776;51.046;6.772;2024-03-23T01:15:50;6.97;;;2.00;;
5507;SDS011;2776;51.046;6.772;2024-03-23T01:18:16;3.97;;;2.50;;
5507;SDS011;2776;51.046;6.772;2024-03-23T01:20:44;6.47;;;2.60;;
5507;SDS011;2776;51.046;6.772;2024-03-23T01:23:09;4.10;;;2.13;;
5507;SDS011;2776;51.046;6.772;2024-03-23T01:25:36;7.17;;;2.37;;
5507;SDS011;2776;51.046;6.772;2024-03-23T01:28:04;7.83;;;3.30;;
5507;SDS011;2776;51.046;6.772;2024-03-23T01:30:32;6.40;;;2.50;;
5507;SDS011;2776;51.046;6.772;2024-03-23T01:32:58;10.87;;;2.43;;
5507;SDS011;2776;51.046;6.772;2024-03-23T01:35:25;6.70;;;2.63;;
5507;SDS011;2776;51.046;6.772;2024-03-23T01:37:50;7.13;;;2.60;;
5507;SDS011;2776;51.046;6.772;2024-03-23T01:40:17;7.80;;;3.00;;
5507;SDS011;2776;51.046;6.772;2024-03-23T01:42:54;8.37;;;2.63;;
5507;SDS011;2776;51.046;6.772;2024-03-23T01:45:23;4.53;;;3.13;;
5507;SDS011;2776;51.046;6.772;2024-03-23T01:47:49;8.80;;;3.07;;
5507;SDS011;2776;51.046;6.772;2024-03-23T01:50:15;7.13;;;3.37;;
5507;SDS011;2776;51.046;6.772;2024-03-23T01:52:42;6.33;;;3.43;;
5507;SDS011;2776;51.046;6.772;2024-03-23T01:55:09;7.77;;;3.23;;
5507;SDS011;2776;51.046;6.772;2024-03-23T01:57:35;5.83;;;1.77;;
5507;SDS011;2776;51.046;6.772;2024-03-23T02:00:02;4.97;;;1.60;;
5507;SDS011;2776;51.046;6.772;2024-03-23T02:02:29;2.37;;;1.60;;
5507;SDS011;2776;51.046;6.772;2024-03-23T02:04:56;3.73;;;1.13;;
5507;SDS011;2776;51.046;6.772;2024-03-23T02:07:21;6.93;;;1.10;;
5507;SDS011;2776;51.046;6.772;2024-03-23T02:09:49;0.73;;;0.67;;
5507;SDS011;2776;51.046;6.772;2024-03-23T02:12:15;4.70;;;0.90;;
5507;SDS011;2776;51.046;6.772;2024-03-23T02:14:43;4.27;;;0.90;;
5507;SDS011;2776;51.046;6.772;2024-03-23T02:17:08;1.60;;;0.80;;
5507;SDS011;2776;51.046;6.772;2024-03-23T02:19:37;2.70;;;1.20;;
5507;SDS011;2776;51.046;6.772;2024-03-23T02:22:03;2.77;;;0.63;;
5507;SDS011;2776;51.046;6.772;2024-03-23T02:24:31;2.50;;;1.00;;
5507;SDS011;2776;51.046;6.772;2024-03-23T02:26:59;3.93;;;1.37;;
5507;SDS011;2776;51.046;6.772;2024-03-23T02:29:25;1.07;;;0.93;;
5507;SDS011;2776;51.046;6.772;2024-03-23T02:31:51;5.53;;;1.33;;
5507;SDS011;2776;51.046;6.772;2024-03-23T02:34:18;0.83;;;0.60;;
5507;SDS011;2776;51.046;6.772;2024-03-23T02:36:44;1.17;;;0.80;;
5507;SDS011;2776;51.046;6.772;2024-03-23T02:39:10;7.47;;;2.60;;
5507;SDS011;2776;51.046;6.772;2024-03-23T02:41:37;2.37;;;1.10;;
5507;SDS011;2776;51.046;6.772;2024-03-23T02:47:26;2.50;;;1.07;;
5507;SDS011;2776;51.046;6.772;2024-03-23T02:49:53;1.47;;;0.73;;
5507;SDS011;2776;51.046;6.772;2024-03-23T02:52:20;8.00;;;1.27;;
5507;SDS011;2776;51.046;6.772;2024-03-23T02:54:46;4.67;;;1.30;;
5507;SDS011;2776;51.046;6.772;2024-03-23T02:57:14;1.93;;;0.60;;
5507;SDS011;2776;51.046;6.772;2024-03-23T02:59:41;3.50;;;0.90;;
5507;SDS011;2776;51.046;6.772;2024-03-23T03:02:07;2.13;;;1.03;;
5507;SDS011;2776;51.046;6.772;2024-03-23T03:04:33;5.70;;;0.90;;
5507;SDS011;2776;51.046;6.772;2024-03-23T03:06:59;1.57;;;0.70;;
5507;SDS011;2776;51.046;6.772;2024-03-23T03:09:26;1.13;;;0.70;;
5507;SDS011;2776;51.046;6.772;2024-03-23T03:11:52;3.30;;;0.87;;
5507;SDS011;2776;51.046;6.772;2024-03-23T03:14:20;3.87;;;0.90;;
5507;SDS011;2776;51.046;6.772;2024-03-23T03:16:46;3.57;;;1.37;;
5507;SDS011;2776;51.046;6.772;2024-03-23T03:19:12;1.53;;;0.60;;
5507;SDS011;2776;51.046;6.772;2024-03-23T03:21:38;0.93;;;0.83;;
5507;SDS011;2776;51.046;6.772;2024-03-23T03:24:05;1.33;;;0.97;;
5507;SDS011;2776;51.046;6.772;2024-03-23T03:26:32;1.13;;;0.90;;
5507;SDS011;2776;51.046;6.772;2024-03-23T03:28:58;2.30;;;0.77;;
5507;SDS011;2776;51.046;6.772;2024-03-23T03:31:25;1.73;;;0.83;;
5507;SDS011;2776;51.046;6.772;2024-03-23T03:33:52;5.70;;;0.97;;
5507;SDS011;2776;51.046;6.772;2024-03-23T03:36:18;0.90;;;0.50;;
5507;SDS011;2776;51.046;6.772;2024-03-23T03:38:46;5.40;;;1.33;;
5507;SDS011;2776;51.046;6.772;2024-03-23T03:41:11;4.83;;;1.23;;
5507;SDS011;2776;51.046;6.772;2024-03-23T03:43:38;6.80;;;1.40;;
5507;SDS011;2776;51.046;6.772;2024-03-23T03:46:04;7.47;;;1.17;;
5507;SDS011;2776;51.046;6.772;2024-03-23T03:48:34;1.27;;;1.17;;
5507;SDS011;2776;51.046;6.772;2024-03-23T03:51:00;3.53;;;1.00;;
5507;SDS011;2776;51.046;6.772;2024-03-23T03:53:26;6.33;;;1.57;;
5507;SDS011;2776;51.046;6.772;2024-03-23T03:55:52;5.77;;;1.17;;
5507;SDS011;2776;51.046;6.772;2024-03-23T03:58:19;3.40;;;0.97;;
5507;SDS011;2776;51.046;6.772;2024-03-23T04:00:44;2.27;;;1.00;;
5507;SDS011;2776;51.046;6.772;2024-03-23T04:03:11;7.03;;;0.90;;
5507;SDS011;2776;51.046;6.772;2024-03-23T04:05:38;2.53;;;0.90;;
5507;SDS011;2776;51.046;6.772;2024-03-23T04:08:05;4.33;;;1.27;;
5507;SDS011;2776;51.046;6.772;2024-03-23T04:10:32;5.33;;;1.20;;
5507;SDS011;2776;51.046;6.772;2024-03-23T04:12:59;4.07;;;0.83;;
5507;SDS011;2776;51.046;6.772;2024-03-23T04:15:26;4.77;;;1.33;;
5507;SDS011;2776;51.046;6.772;2024-03-23T04:17:53;2.27;;;1.03;;
5507;SDS011;2776;51.046;6.772;2024-03-23T04:20:18;2.37;;;0.77;;
5507;SDS011;2776;51.046;6.772;2024-03-23T04:22:46;3.77;;;0.80;;
5507;SDS011;2776;51.046;6.772;2024-03-23T04:25:13;3.93;;;0.77;;
5507;SDS011;2776;51.046;6.772;2024-03-23T04:27:39;0.93;;;0.90;;
5507;SDS011;2776;51.046;6.772;2024-03-23T04:30:06;3.47;;;1.70;;
5507;SDS011;2776;51.046;6.772;2024-03-23T04:32:36;2.17;;;0.80;;
5507;SDS011;2776;51.046;6.772;2024-03-23T04:35:02;1.17;;;0.90;;
5507;SDS011;2776;51.046;6.772;2024-03-23T04:37:30;2.80;;;0.80;;
5507;SDS011;2776;51.046;6.772;2024-03-23T04:39:59;2.43;;;0.97;;
5507;SDS011;2776;51.046;6.772;2024-03-23T04:42:25;2.40;;;1.20;;
5507;SDS011;2776;51.046;6.772;2024-03-23T04:44:52;5.47;;;1.87;;
5507;SDS011;2776;51.046;6.772;2024-03-23T04:47:19;3.93;;;0.93;;
5507;SDS011;2776;51.046;6.772;2024-03-23T04:49:46;1.93;;;1.00;;
5507;SDS011;2776;51.046;6.772;2024-03-23T04:52:13;5.47;;;0.97;;
5507;SDS011;2776;51.046;6.772;2024-03-23T04:54:40;5.77;;;1.40;;
5507;SDS011;2776;51.046;6.772;2024-03-23T04:57:07;9.10;;;1.37;;
5507;SDS011;2776;51.046;6.772;2024-03-23T04:59:34;11.10;;;1.90;;
5507;SDS011;2776;51.046;6.772;2024-03-23T05:02:00;4.57;;;1.07;;
5507;SDS011;2776;51.046;6.772;2024-03-23T05:04:27;2.80;;;1.10;;
5507;SDS011;2776;51.046;6.772;2024-03-23T05:06:53;7.00;;;1.03;;
5507;SDS011;2776;51.046;6.772;2024-03-23T05:09:20;2.03;;;1.07;;
5507;SDS011;2776;51.046;6.772;2024-03-23T05:11:46;1.97;;;0.60;;
5507;SDS011;2776;51.046;6.772;2024-03-23T05:14:14;4.47;;;1.40;;
5507;SDS011;2776;51.046;6.772;2024-03-23T05:16:40;5.60;;;1.33;;
5507;SDS011;2776;51.046;6.772;2024-03-23T05:19:07;2.73;;;1.33;;
5507;SDS011;2776;51.046;6.772;2024-03-23T05:21:32;6.10;;;1.43;;
5507;SDS011;2776;51.046;6.772;2024-03-23T05:23:59;8.73;;;1.63;;
5507;SDS011;2776;51.046;6.772;2024-03-23T05:26:25;5.77;;;1.70;;
5507;SDS011;2776;51.046;6.772;2024-03-23T05:28:52;4.00;;;1.37;;
5507;SDS011;2776;51.046;6.772;2024-03-23T05:31:29;2.23;;;1.23;;
5507;SDS011;2776;51.046;6.772;2024-03-23T05:33:56;3.93;;;1.30;;
5507;SDS011;2776;51.046;6.772;2024-03-23T05:36:22;1.87;;;1.13;;
5507;SDS011;2776;51.046;6.772;2024-03-23T05:38:49;5.40;;;1.43;;
5507;SDS011;2776;51.046;6.772;2024-03-23T05:41:15;9.63;;;1.57;;
5507;SDS011;2776;51.046;6.772;2024-03-23T05:43:42;4.83;;;0.93;;
5507;SDS011;2776;51.046;6.772;2024-03-23T05:46:08;7.40;;;1.67;;
5507;SDS011;2776;51.046;6.772;2024-03-23T05:48:36;3.50;;;1.40;;
5507;SDS011;2776;51.046;6.772;2024-03-23T05:51:02;2.47;;;1.47;;
5507;SDS011;2776;51.046;6.772;2024-03-23T05:53:29;3.13;;;1.33;;
5507;SDS011;2776;51.046;6.772;2024-03-23T05:55:59;4.93;;;1.00;;
5507;SDS011;2776;51.046;6.772;2024-03-23T05:58:28;4.67;;;2.03;;
5507;SDS011;2776;51.046;6.772;2024-03-23T06:00:56;5.23;;;1.33;;
5507;SDS011;2776;51.046;6.772;2024-03-23T06:03:24;2.87;;;1.30;;
5507;SDS011;2776;51.046;6.772;2024-03-23T06:05:51;5.67;;;1.60;;
5507;SDS011;2776;51.046;6.772;2024-03-23T06:08:19;3.67;;;1.07;;
5507;SDS011;2776;51.046;6.772;2024-03-23T06:10:44;7.53;;;2.10;;
5507;SDS011;2776;51.046;6.772;2024-03-23T06:13:11;4.40;;;1.10;;
5507;SDS011;2776;51.046;6.772;2024-03-23T06:15:37;4.40;;;1.67;;
5507;SDS011;2776;51.046;6.772;2024-03-23T06:18:04;3.20;;;1.60;;
5507;SDS011;2776;51.046;6.772;2024-03-23T06:20:30;4.73;;;1.40;;
5507;SDS011;2776;51.046;6.772;2024-03-23T06:22:58;5.10;;;1.53;;
5507;SDS011;2776;51.046;6.772;2024-03-23T06:25:24;6.23;;;2.20;;
5507;SDS011;2776;51.046;6.772;2024-03-23T06:27:51;8.67;;;1.53;;
5507;SDS011;2776;51.046;6.772;2024-03-23T06:30:17;7.60;;;2.10;;
5507;SDS011;2776;51.046;6.772;2024-03-23T06:32:44;3.57;;;1.83;;
5507;SDS011;2776;51.046;6.772;2024-03-23T06:35:09;3.60;;;1.83;;
5507;SDS011;2776;51.046;6.772;2024-03-23T06:37:36;6.77;;;1.67;;
5507;SDS011;2776;51.046;6.772;2024-03-23T06:40:06;6.63;;;1.60;;
5507;SDS011;2776;51.046;6.772;2024-03-23T06:42:34;4.93;;;1.83;;
5507;SDS011;2776;51.046;6.772;2024-03-23T06:45:00;9.17;;;2.57;;
5507;SDS011;2776;51.046;6.772;2024-03-23T06:47:27;5.10;;;1.50;;
5507;SDS011;2776;51.046;6.772;2024-03-23T06:49:53;7.20;;;1.30;;
5507;SDS011;2776;51.046;6.772;2024-03-23T06:52:19;6.60;;;1.60;;
5507;SDS011;2776;51.046;6.772;2024-03-23T06:54:45;5.17;;;2.10;;
5507;SDS011;2776;51.046;6.772;2024-03-23T06:57:13;9.07;;;1.60;;
5507;SDS011;2776;51.046;6.772;2024-03-23T06:59:39;3.67;;;1.80;;
5507;SDS011;2776;51.046;6.772;2024-03-23T07:02:05;5.00;;;1.73;;
5507;SDS011;2776;51.046;6.772;2024-03-23T07:04:33;4.20;;;1.43;;
5507;SDS011;2776;51.046;6.772;2024-03-23T07:07:00;7.07;;;2.07;;
5507;SDS011;2776;51.046;6.772;2024-03-23T07:09:26;6.27;;;1.50;;
5507;SDS011;2776;51.046;6.772;2024-03-23T07:11:53;4.60;;;2.00;;
5507;SDS011;2776;51.046;6.772;2024-03-23T07:14:20;2.07;;;1.30;;
5507;SDS011;2776;51.046;6.772;2024-03-23T07:16:47;6.87;;;1.73;;
5507;SDS011;2776;51.046;6.772;2024-03-23T07:19:14;6.10;;;2.03;;
5507;SDS011;2776;51.046;6.772;2024-03-23T07:21:42;4.90;;;2.50;;
5507;SDS011;2776;51.046;6.772;2024-03-23T07:24:08;3.60;;;2.20;;
5507;SDS011;2776;51.046;6.772;2024-03-23T07:26:34;6.00;;;2.00;;
5507;SDS011;2776;51.046;6.772;2024-03-23T07:29:00;9.83;;;2.70;;
5507;SDS011;2776;51.046;6.772;2024-03-23T07:31:29;5.40;;;2.23;;
5507;SDS011;2776;51.046;6.772;2024-03-23T07:33:56;7.27;;;2.37;;
5507;SDS011;2776;51.046;6.772;2024-03-23T07:36:22;5.50;;;2.00;;
5507;SDS011;2776;51.046;6.772;2024-03-23T07:38:48;5.83;;;2.10;;
5507;SDS011;2776;51.046;6.772;2024-03-23T07:41:15;3.47;;;2.47;;
5507;SDS011;2776;51.046;6.772;2024-03-23T07:43:43;6.87;;;3.03;;
5507;SDS011;2776;51.046;6.772;2024-03-23T07:46:10;5.37;;;2.90;;
5507;SDS011;2776;51.046;6.772;2024-03-23T07:48:38;8.93;;;2.73;;
5507;SDS011;2776;51.046;6.772;2024-03-23T07:51:07;8.27;;;3.17;;
5507;SDS011;2776;51.046;6.772;2024-03-23T07:53:34;6.47;;;2.57;;
5507;SDS011;2776;51.046;6.772;2024-03-23T07:56:02;5.57;;;2.23;;
5507;SDS011;2776;51.046;6.772;2024-03-23T07:58:30;3.37;;;1.97;;
5507;SDS011;2776;51.046;6.772;2024-03-23T08:01:02;5.30;;;2.57;;
5507;SDS011;2776;51.046;6.772;2024-03-23T08:03:29;2.60;;;2.10;;
5507;SDS011;2776;51.046;6.772;2024-03-23T08:05:57;9.50;;;2.97;;
5507;SDS011;2776;51.046;6.772;2024-03-23T08:08:22;3.13;;;2.07;;
5507;SDS011;2776;51.046;6.772;2024-03-23T08:10:49;4.77;;;2.00;;
5507;SDS011;2776;51.046;6.772;2024-03-23T08:13:15;3.70;;;1.80;;
5507;SDS011;2776;51.046;6.772;2024-03-23T08:15:42;7.60;;;1.57;;
5507;SDS011;2776;51.046;6.772;2024-03-23T08:18:08;4.43;;;1.73;;
5507;SDS011;2776;51.046;6.772;2024-03-23T08:20:36;8.67;;;1.77;;
5507;SDS011;2776;51.046;6.772;2024-03-23T08:23:04;6.67;;;1.93;;
5507;SDS011;2776;51.046;6.772;2024-03-23T08:25:32;3.83;;;1.27;;
5507;SDS011;2776;51.046;6.772;2024-03-23T08:27:58;3.73;;;1.20;;
5507;SDS011;2776;51.046;6.772;2024-03-23T08:30:25;7.37;;;1.80;;
5507;SDS011;2776;51.046;6.772;2024-03-23T08:32:51;7.10;;;1.57;;
5507;SDS011;2776;51.046;6.772;2024-03-23T08:35:18;4.00;;;1.47;;
5507;SDS011;2776;51.046;6.772;2024-03-23T08:37:45;4.00;;;1.90;;
5507;SDS011;2776;51.046;6.772;2024-03-23T08:40:13;2.10;;;1.27;;
5507;SDS011;2776;51.046;6.772;2024-03-23T08:42:39;6.17;;;2.00;;
5507;SDS011;2776;51.046;6.772;2024-03-23T08:45:05;4.40;;;1.70;;
5507;SDS011;2776;51.046;6.772;2024-03-23T08:47:33;4.80;;;1.40;;
5507;SDS011;2776;51.046;6.772;2024-03-23T08:50:00;6.70;;;2.23;;
5507;SDS011;2776;51.046;6.772;2024-03-23T08:52:26;7.90;;;2.67;;
5507;SDS011;2776;51.046;6.772;2024-03-23T08:54:53;7.13;;;2.43;;
5507;SDS011;2776;51.046;6.772;2024-03-23T08:57:20;6.80;;;2.30;;
5507;SDS011;2776;51.046;6.772;2024-03-23T08:59:47;3.43;;;1.87;;
5507;SDS011;2776;51.046;6.772;2024-03-23T09:02:13;7.50;;;2.30;;
5507;SDS011;2776;51.046;6.772;2024-03-23T09:04:40;4.80;;;2.10;;
5507;SDS011;2776;51.046;6.772;2024-03-23T09:07:05;4.53;;;1.60;;
5507;SDS011;2776;51.046;6.772;2024-03-23T09:09:32;5.83;;;2.53;;
5507;SDS011;2776;51.046;6.772;2024-03-23T09:11:58;9.20;;;2.00;;
5507;SDS011;2776;51.046;6.772;2024-03-23T09:14:26;3.90;;;1.93;;
5507;SDS011;2776;51.046;6.772;2024-03-23T09:16:51;7.70;;;2.20;;
5507;SDS011;2776;51.046;6.772;2024-03-23T09:19:18;3.40;;;1.53;;
5507;SDS011;2776;51.046;6.772;2024-03-23T09:21:45;4.40;;;1.90;;
5507;SDS011;2776;51.046;6.772;2024-03-23T09:24:11;9.00;;;2.20;;
5507;SDS011;2776;51.046;6.772;2024-03-23T09:26:37;5.13;;;2.13;;
5507;SDS011;2776;51.046;6.772;2024-03-23T09:29:04;7.60;;;2.03;;
5507;SDS011;2776;51.046;6.772;2024-03-23T09:31:31;4.63;;;1.70;;
5507;SDS011;2776;51.046;6.772;2024-03-23T09:33:58;6.07;;;1.70;;
5507;SDS011;2776;51.046;6.772;2024-03-23T09:36:24;3.70;;;1.30;;
5507;SDS011;2776;51.046;6.772;2024-03-23T09:38:51;4.97;;;1.33;;
5507;SDS011;2776;51.046;6.772;2024-03-23T09:41:16;2.70;;;0.93;;
5507;SDS011;2776;51.046;6.772;2024-03-23T09:43:43;6.57;;;1.33;;
5507;SDS011;2776;51.046;6.772;2024-03-23T09:46:10;1.90;;;1.00;;
5507;SDS011;2776;51.046;6.772;2024-03-23T09:48:38;3.20;;;1.33;;
5507;SDS011;2776;51.046;6.772;2024-03-23T09:51:04;3.03;;;0.87;;
5507;SDS011;2776;51.046;6.772;2024-03-23T09:53:33;2.97;;;1.33;;
5507;SDS011;2776;51.046;6.772;2024-03-23T09:55:58;2.37;;;0.87;;
5507;SDS011;2776;51.046;6.772;2024-03-23T09:58:25;3.83;;;1.40;;
5507;SDS011;2776;51.046;6.772;2024-03-23T10:00:51;2.43;;;1.10;;
5507;SDS011;2776;51.046;6.772;2024-03-23T10:03:18;2.67;;;1.00;;
5507;SDS011;2776;51.046;6.772;2024-03-23T10:05:45;6.50;;;1.30;;
5507;SDS011;2776;51.046;6.772;2024-03-23T10:08:18;2.53;;;0.87;;
5507;SDS011;2776;51.046;6.772;2024-03-23T10:10:45;1.90;;;0.80;;
5507;SDS011;2776;51.046;6.772;2024-03-23T10:13:23;1.43;;;0.97;;
5507;SDS011;2776;51.046;6.772;2024-03-23T10:15:54;5.17;;;0.77;;
5507;SDS011;2776;51.046;6.772;2024-03-23T10:18:22;5.07;;;0.87;;
5507;SDS011;2776;51.046;6.772;2024-03-23T10:20:52;5.47;;;0.63;;
5507;SDS011;2776;51.046;6.772;2024-03-23T10:23:31;4.77;;;0.73;;
5507;SDS011;2776;51.046;6.772;2024-03-23T10:26:00;1.47;;;0.80;;
5507;SDS011;2776;51.046;6.772;2024-03-23T10:28:38;2.67;;;0.70;;
5507;SDS011;2776;51.046;6.772;2024-03-23T10:31:17;2.93;;;0.70;;
5507;SDS011;2776;51.046;6.772;2024-03-23T10:33:44;3.23;;;0.70;;
5507;SDS011;2776;51.046;6.772;2024-03-23T10:36:12;5.70;;;0.60;;
5507;SDS011;2776;51.046;6.772;2024-03-23T10:38:39;1.93;;;0.67;;
5507;SDS011;2776;51.046;6.772;2024-03-23T10:41:07;2.03;;;0.73;;
5507;SDS011;2776;51.046;6.772;2024-03-23T10:43:34;1.30;;;0.40;;
5507;SDS011;2776;51.046;6.772;2024-03-23T10:46:02;2.60;;;0.50;;
5507;SDS011;2776;51.046;6.772;2024-03-23T10:48:28;1.90;;;0.60;;
5507;SDS011;2776;51.046;6.772;2024-03-23T10:50:55;1.60;;;0.73;;
5507;SDS011;2776;51.046;6.772;2024-03-23T10:53:24;1.00;;;0.50;;
5507;SDS011;2776;51.046;6.772;2024-03-23T10:55:53;1.20;;;0.50;;
5507;SDS011;2776;51.046;6.772;2024-03-23T10:58:21;1.60;;;0.90;;
5507;SDS011;2776;51.046;6.772;2024-03-23T11:00:52;2.43;;;1.17;;
5507;SDS011;2776;51.046;6.772;2024-03-23T11:03:34;0.30;;;0.30;;
5507;SDS011;2776;51.046;6.772;2024-03-23T11:06:02;0.23;;;0.23;;
5507;SDS011;2776;51.046;6.772;2024-03-23T11:08:33;0.17;;;0.17;;
5507;SDS011;2776;51.046;6.772;2024-03-23T11:11:14;0.30;;;0.30;;
5507;SDS011;2776;51.046;6.772;2024-03-23T11:13:42;0.47;;;0.10;;
5507;SDS011;2776;51.046;6.772;2024-03-23T11:16:16;0.30;;;0.30;;
5507;SDS011;2776;51.046;6.772;2024-03-23T11:18:47;0.50;;;0.37;;
5507;SDS011;2776;51.046;6.772;2024-03-23T11:21:13;0.10;;;0.10;;
5507;SDS011;2776;51.046;6.772;2024-03-23T11:24:22;1.40;;;0.57;;
5507;SDS011;2776;51.046;6.772;2024-03-23T11:26:48;0.30;;;0.20;;
5507;SDS011;2776;51.046;6.772;2024-03-23T11:29:16;0.30;;;0.30;;
5507;SDS011;2776;51.046;6.772;2024-03-23T11:31:46;0.53;;;0.30;;
5507;SDS011;2776;51.046;6.772;2024-03-23T11:34:14;0.83;;;0.67;;
5507;SDS011;2776;51.046;6.772;2024-03-23T11:36:40;1.50;;;0.70;;
5507;SDS011;2776;51.046;6.772;2024-03-23T11:39:13;0.57;;;0.33;;
5507;SDS011;2776;51.046;6.772;2024-03-23T11:41:49;0.50;;;0.23;;
5507;SDS011;2776;51.046;6.772;2024-03-23T11:44:17;4.20;;;0.70;;
5507;SDS011;2776;51.046;6.772;2024-03-23T11:46:43;2.13;;;0.63;;
5507;SDS011;2776;51.046;6.772;2024-03-23T11:49:20;0.60;;;0.60;;
5507;SDS011;2776;51.046;6.772;2024-03-23T11:51:49;3.20;;;0.70;;
5507;SDS011;2776;51.046;6.772;2024-03-23T11:54:20;6.60;;;0.80;;
5507;SDS011;2776;51.046;6.772;2024-03-23T11:56:57;1.50;;;0.80;;
5507;SDS011;2776;51.046;6.772;2024-03-23T11:59:34;0.97;;;0.73;;
5507;SDS011;2776;51.046;6.772;2024-03-23T12:02:00;1.97;;;1.03;;
5507;SDS011;2776;51.046;6.772;2024-03-23T12:04:32;0.50;;;0.20;;
5507;SDS011;2776;51.046;6.772;2024-03-23T12:07:14;2.60;;;0.37;;
5507;SDS011;2776;51.046;6.772;2024-03-23T12:09:43;0.10;;;0.10;;
5507;SDS011;2776;51.046;6.772;2024-03-23T12:12:13;0.10;;;0.10;;
5507;SDS011;2776;51.046;6.772;2024-03-23T12:14:41;0.83;;;0.30;;
5507;SDS011;2776;51.046;6.772;2024-03-23T12:17:10;0.27;;;0.27;;
5507;SDS011;2776;51.046;6.772;2024-03-23T12:19:37;1.00;;;0.53;;
5507;SDS011;2776;51.046;6.772;2024-03-23T12:22:03;0.57;;;0.50;;
5507;SDS011;2776;51.046;6.772;2024-03-23T12:24:31;1.37;;;0.40;;
5507;SDS011;2776;51.046;6.772;2024-03-23T12:26:59;0.77;;;0.60;;
5507;SDS011;2776;51.046;6.772;2024-03-23T12:29:29;0.57;;;0.33;;
5507;SDS011;2776;51.046;6.772;2024-03-23T12:31:56;0.97;;;0.37;;
5507;SDS011;2776;51.046;6.772;2024-03-23T12:34:25;0.30;;;0.30;;
5507;SDS011;2776;51.046;6.772;2024-03-23T12:36:51;1.70;;;0.40;;
5507;SDS011;2776;51.046;6.772;2024-03-23T12:39:17;1.40;;;0.23;;
5507;SDS011;2776;51.046;6.772;2024-03-23T12:41:44;0.33;;;0.30;;
5507;SDS011;2776;51.046;6.772;2024-03-23T12:44:10;0.87;;;0.17;;
5507;SDS011;2776;51.046;6.772;2024-03-23T12:46:40;0.10;;;0.10;;
5507;SDS011;2776;51.046;6.772;2024-03-23T12:49:06;2.00;;;0.10;;
5507;SDS011;2776;51.046;6.772;2024-03-23T12:51:32;0.47;;;0.30;;
5507;SDS011;2776;51.046;6.772;2024-03-23T12:53:58;0.63;;;0.30;;
5507;SDS011;2776;51.046;6.772;2024-03-23T12:56:25;0.67;;;0.67;;
5507;SDS011;2776;51.046;6.772;2024-03-23T12:58:53;1.17;;;0.50;;
5507;SDS011;2776;51.046;6.772;2024-03-23T13:01:21;3.13;;;0.53;;
5507;SDS011;2776;51.046;6.772;2024-03-23T13:03:49;0.73;;;0.73;;
5507;SDS011;2776;51.046;6.772;2024-03-23T13:06:16;4.30;;;1.00;;
5507;SDS011;2776;51.046;6.772;2024-03-23T13:08:43;1.20;;;0.50;;
5507;SDS011;2776;51.046;6.772;2024-03-23T13:11:10;3.67;;;0.90;;
5507;SDS011;2776;51.046;6.772;2024-03-23T13:13:36;0.53;;;0.40;;
5507;SDS011;2776;51.046;6.772;2024-03-23T13:16:04;1.70;;;0.70;;
5507;SDS011;2776;51.046;6.772;2024-03-23T13:18:31;0.60;;;0.40;;
5507;SDS011;2776;51.046;6.772;2024-03-23T13:20:58;1.83;;;0.70;;
5507;SDS011;2776;51.046;6.772;2024-03-23T13:23:25;1.03;;;0.73;;
5507;SDS011;2776;51.046;6.772;2024-03-23T13:25:51;1.00;;;0.80;;
5507;SDS011;2776;51.046;6.772;2024-03-23T13:28:19;1.13;;;1.03;;
5507;SDS011;2776;51.046;6.772;2024-03-23T13:30:51;1.23;;;1.00;;
5507;SDS011;2776;51.046;6.772;2024-03-23T13:33:18;3.83;;;1.00;;
5507;SDS011;2776;51.046;6.772;2024-03-23T13:35:50;1.43;;;0.73;;
5507;SDS011;2776;51.046;6.772;2024-03-23T13:38:18;1.73;;;0.90;;
5507;SDS011;2776;51.046;6.772;2024-03-23T13:40:50;0.70;;;0.60;;
5507;SDS011;2776;51.046;6.772;2024-03-23T13:43:18;2.23;;;1.03;;
5507;SDS011;2776;51.046;6.772;2024-03-23T13:45:44;4.73;;;1.20;;
5507;SDS011;2776;51.046;6.772;2024-03-23T13:48:11;0.63;;;0.57;;
5507;SDS011;2776;51.046;6.772;2024-03-23T13:50:37;1.17;;;0.27;;
5507;SDS011;2776;51.046;6.772;2024-03-23T13:53:03;0.40;;;0.30;;
5507;SDS011;2776;51.046;6.772;2024-03-23T13:55:30;0.20;;;0.20;;
5507;SDS011;2776;51.046;6.772;2024-03-23T13:57:57;0.30;;;0.30;;
5507;SDS011;2776;51.046;6.772;2024-03-23T14:00:23;0.73;;;0.67;;
5507;SDS011;2776;51.046;6.772;2024-03-23T14:02:50;0.90;;;0.80;;
5507;SDS011;2776;51.046;6.772;2024-03-23T14:05:15;0.60;;;0.43;;
5507;SDS011;2776;51.046;6.772;2024-03-23T14:07:42;0.60;;;0.60;;
5507;SDS011;2776;51.046;6.772;2024-03-23T14:10:08;0.43;;;0.43;;
5507;SDS011;2776;51.046;6.772;2024-03-23T14:12:37;1.80;;;0.60;;
5507;SDS011;2776;51.046;6.772;2024-03-23T14:15:05;0.83;;;0.73;;
5507;SDS011;2776;51.046;6.772;2024-03-23T14:17:32;0.70;;;0.70;;
5507;SDS011;2776;51.046;6.772;2024-03-23T14:19:57;0.63;;;0.50;;
5507;SDS011;2776;51.046;6.772;2024-03-23T14:22:26;0.90;;;0.50;;
5507;SDS011;2776;51.046;6.772;2024-03-23T14:24:52;0.47;;;0.47;;
5507;SDS011;2776;51.046;6.772;2024-03-23T14:27:18;0.83;;;0.83;;
5507;SDS011;2776;51.046;6.772;2024-03-23T14:29:46;1.57;;;0.93;;
5507;SDS011;2776;51.046;6.772;2024-03-23T14:32:13;1.17;;;0.70;;
5507;SDS011;2776;51.046;6.772;2024-03-23T14:34:39;1.30;;;0.83;;
5507;SDS011;2776;51.046;6.772;2024-03-23T14:37:06;1.80;;;0.43;;
5507;SDS011;2776;51.046;6.772;2024-03-23T14:39:33;2.37;;;0.60;;
5507;SDS011;2776;51.046;6.772;2024-03-23T14:42:00;0.60;;;0.60;;
5507;SDS011;2776;51.046;6.772;2024-03-23T14:44:26;0.40;;;0.40;;
5507;SDS011;2776;51.046;6.772;2024-03-23T14:46:55;1.83;;;0.53;;
5507;SDS011;2776;51.046;6.772;2024-03-23T14:49:21;2.23;;;0.60;;
5507;SDS011;2776;51.046;6.772;2024-03-23T14:51:48;0.50;;;0.50;;
5507;SDS011;2776;51.046;6.772;2024-03-23T14:54:15;2.20;;;0.90;;
5507;SDS011;2776;51.046;6.772;2024-03-23T14:56:41;0.60;;;0.60;;
5507;SDS011;2776;51.046;6.772;2024-03-23T14:59:07;0.60;;;0.43;;
5507;SDS011;2776;51.046;6.772;2024-03-23T15:01:34;0.70;;;0.70;;
5507;SDS011;2776;51.046;6.772;2024-03-23T15:04:01;0.67;;;0.40;;
5507;SDS011;2776;51.046;6.772;2024-03-23T15:06:28;0.40;;;0.40;;
5507;SDS011;2776;51.046;6.772;2024-03-23T15:08:54;0.53;;;0.53;;
5507;SDS011;2776;51.046;6.772;2024-03-23T15:11:21;2.40;;;0.50;;
5507;SDS011;2776;51.046;6.772;2024-03-23T15:13:49;1.43;;;0.43;;
5507;SDS011;2776;51.046;6.772;2024-03-23T15:16:16;0.57;;;0.57;;
5507;SDS011;2776;51.046;6.772;2024-03-23T15:18:42;0.57;;;0.50;;
5507;SDS011;2776;51.046;6.772;2024-03-23T15:21:10;0.27;;;0.27;;
5507;SDS011;2776;51.046;6.772;2024-03-23T15:23:37;1.13;;;0.70;;
5507;SDS011;2776;51.046;6.772;2024-03-23T15:26:04;1.63;;;0.70;;
5507;SDS011;2776;51.046;6.772;2024-03-23T15:28:31;0.83;;;0.50;;
5507;SDS011;2776;51.046;6.772;2024-03-23T15:31:06;0.80;;;0.80;;
5507;SDS011;2776;51.046;6.772;2024-03-23T15:33:34;0.30;;;0.30;;
5507;SDS011;2776;51.046;6.772;2024-03-23T15:36:01;1.93;;;0.47;;
5507;SDS011;2776;51.046;6.772;2024-03-23T15:38:28;0.50;;;0.30;;
5507;SDS011;2776;51.046;6.772;2024-03-23T15:40:57;1.10;;;0.70;;
5507;SDS011;2776;51.046;6.772;2024-03-23T15:43:23;0.23;;;0.23;;
5507;SDS011;2776;51.046;6.772;2024-03-23T15:45:54;0.10;;;0.10;;
5507;SDS011;2776;51.046;6.772;2024-03-23T15:48:20;0.30;;;0.30;;
5507;SDS011;2776;51.046;6.772;2024-03-23T15:50:50;0.67;;;0.37;;
5507;SDS011;2776;51.046;6.772;2024-03-23T15:53:17;1.13;;;0.40;;
5507;SDS011;2776;51.046;6.772;2024-03-23T15:55:45;0.67;;;0.20;;
5507;SDS011;2776;51.046;6.772;2024-03-23T15:58:17;0.47;;;0.27;;
5507;SDS011;2776;51.046;6.772;2024-03-23T16:00:45;0.53;;;0.30;;
5507;SDS011;2776;51.046;6.772;2024-03-23T16:03:11;0.50;;;0.30;;
5507;SDS011;2776;51.046;6.772;2024-03-23T16:05:38;0.87;;;0.30;;
5507;SDS011;2776;51.046;6.772;2024-03-23T16:08:03;0.93;;;0.57;;
5507;SDS011;2776;51.046;6.772;2024-03-23T16:10:31;0.67;;;0.50;;
5507;SDS011;2776;51.046;6.772;2024-03-23T16:12:58;1.33;;;0.73;;
5507;SDS011;2776;51.046;6.772;2024-03-23T16:15:25;2.03;;;0.80;;